createdAt,value
2022-08-16T00:06:13.469Z,991.63
2022-08-16T00:17:05.552Z,991.61
2022-08-16T00:26:44.281Z,991.68
2022-08-16T00:36:47.234Z,991.62
2022-08-16T00:47:05.968Z,991.68
2022-08-16T00:57:07.263Z,991.65
2022-08-16T01:07:19.127Z,991.70
2022-08-16T01:17:26.519Z,991.74
2022-08-16T01:27:34.541Z,991.79
2022-08-16T01:37:42.241Z,991.80
2022-08-16T01:47:51.261Z,991.87
2022-08-16T01:57:59.603Z,991.83
2022-08-16T02:08:07.104Z,991.74
2022-08-16T02:18:18.739Z,991.82
2022-08-16T02:28:25.488Z,991.94
2022-08-16T02:38:33.973Z,991.97
2022-08-16T02:48:47.472Z,991.96
2022-08-16T02:58:53.611Z,991.93
2022-08-16T03:09:01.365Z,991.91
2022-08-16T03:19:08.619Z,991.96
2022-08-16T03:29:16.048Z,992.03
2022-08-16T03:39:23.979Z,992.03
2022-08-16T03:49:36.491Z,992.18
2022-08-16T03:59:44.030Z,992.24
2022-08-16T04:09:51.427Z,992.33
2022-08-16T04:20:00.154Z,992.32
2022-08-16T04:30:10.856Z,992.31
2022-08-16T04:40:21.563Z,992.38
2022-08-16T04:50:30.729Z,992.49
2022-08-16T05:00:38.005Z,992.60
2022-08-16T05:10:47.841Z,992.86
2022-08-16T05:21:01.608Z,992.91
2022-08-16T05:31:08.802Z,992.98
2022-08-16T05:41:17.377Z,993.06
2022-08-16T05:51:37.734Z,993.08
2022-08-16T06:01:38.742Z,993.13
2022-08-16T06:11:46.020Z,993.26
2022-08-16T06:21:55.355Z,993.25
2022-08-16T06:32:04.278Z,993.28
2022-08-16T06:42:11.722Z,993.24
2022-08-16T06:52:59.682Z,993.24
2022-08-16T07:02:32.462Z,993.29
2022-08-16T07:12:47.161Z,993.32
2022-08-16T07:22:53.047Z,993.21
2022-08-16T07:33:04.543Z,993.24
2022-08-16T07:43:14.600Z,993.26
2022-08-16T07:53:21.946Z,993.32
2022-08-16T08:03:35.901Z,993.27
2022-08-16T08:13:43.065Z,993.22
2022-08-16T08:23:50.658Z,993.22
2022-08-16T08:33:58.670Z,993.27
2022-08-16T08:44:28.007Z,993.38
2022-08-16T08:54:20.502Z,993.42
2022-08-16T09:04:28.243Z,993.44
2022-08-16T09:14:35.734Z,993.50
2022-08-16T09:24:52.142Z,993.31
2022-08-16T09:34:58.298Z,993.29
2022-08-16T09:45:11.323Z,993.20
2022-08-16T09:55:18.589Z,993.14
2022-08-16T10:05:25.816Z,993.09
2022-08-16T10:15:35.410Z,993.14
2022-08-16T10:27:11.322Z,993.01
2022-08-16T10:35:57.642Z,992.87
2022-08-16T10:46:39.261Z,992.97
2022-08-16T10:56:52.141Z,993.05
2022-08-16T11:06:34.261Z,993.10
2022-08-16T11:27:18.667Z,993.04
2022-08-16T11:37:04.123Z,993.12
2022-08-16T11:47:12.328Z,993.19
2022-08-16T11:57:20.740Z,993.10
2022-08-16T12:07:29.486Z,993.09
2022-08-16T12:17:39.988Z,993.20
2022-08-16T12:27:49.765Z,993.09
2022-08-16T12:37:56.874Z,992.96
2022-08-16T12:48:31.456Z,993.01
2022-08-16T12:58:49.941Z,993.00
2022-08-16T13:08:30.682Z,992.95
2022-08-16T13:18:37.176Z,992.94
2022-08-16T13:28:46.240Z,992.90
2022-08-16T13:38:55.180Z,992.92
2022-08-16T13:49:04.623Z,992.87
2022-08-16T13:59:16.558Z,992.85
2022-08-16T14:09:24.210Z,992.84
2022-08-16T14:19:30.811Z,992.82
2022-08-16T14:29:38.286Z,992.77
2022-08-16T14:39:45.058Z,992.76
2022-08-16T14:49:52.538Z,992.78
2022-08-16T15:00:04.673Z,992.78
2022-08-16T15:10:23.868Z,992.80
2022-08-16T15:20:26.362Z,992.83
2022-08-16T15:30:56.776Z,992.88
2022-08-16T15:40:52.184Z,992.76
2022-08-16T15:50:57.222Z,992.82
2022-08-16T16:01:04.058Z,992.80
2022-08-16T16:11:11.586Z,992.79
2022-08-16T16:21:20.634Z,992.87
2022-08-16T16:31:27.388Z,992.81
2022-08-16T16:41:34.497Z,992.82
2022-08-16T16:51:44.502Z,992.89
2022-08-16T17:01:57.729Z,992.92
2022-08-16T17:12:05.191Z,993.04
2022-08-16T17:22:15.234Z,993.05
2022-08-16T17:32:44.555Z,993.11
2022-08-16T17:42:33.912Z,993.09
2022-08-16T17:52:49.047Z,993.11
2022-08-16T18:02:53.205Z,993.19
2022-08-16T18:13:00.644Z,993.29
2022-08-16T18:23:08.507Z,993.28
2022-08-16T18:33:15.410Z,993.43
2022-08-16T18:43:59.194Z,993.47
2022-08-16T18:53:34.949Z,993.54
2022-08-16T19:03:42.605Z,993.71
2022-08-16T19:13:49.600Z,993.82
2022-08-16T19:23:56.795Z,993.94
2022-08-16T19:34:03.542Z,993.99
2022-08-16T19:44:10.552Z,994.12
2022-08-16T19:54:18.488Z,994.11
2022-08-16T20:04:25.584Z,994.10
2022-08-16T20:14:32.718Z,994.14
2022-08-16T20:24:40.045Z,994.22
2022-08-16T20:34:47.602Z,994.41
2022-08-16T20:44:54.625Z,994.49
2022-08-16T20:55:02.213Z,994.52
2022-08-16T21:05:09.484Z,994.51
2022-08-16T21:15:16.920Z,994.66
2022-08-16T21:25:24.064Z,994.76
2022-08-16T21:35:32.824Z,994.78
2022-08-16T21:45:40.201Z,994.78
2022-08-16T21:55:47.297Z,994.81
2022-08-16T22:06:12.620Z,994.86
2022-08-16T22:16:06.876Z,994.94
2022-08-16T22:26:13.858Z,994.98
2022-08-16T22:36:21.149Z,994.93
2022-08-16T22:46:28.779Z,994.87
2022-08-16T22:56:35.798Z,994.87
2022-08-16T23:06:42.925Z,994.75
2022-08-16T23:16:49.941Z,994.74
2022-08-16T23:26:56.907Z,994.72
2022-08-16T23:37:04.305Z,994.72
2022-08-16T23:47:10.971Z,994.71
2022-08-16T23:57:18.717Z,994.74
